Terminal Aerodrome Forecast
Issued by NWS

Home | Current Version | Previous Version | Text Only | Print | Product List | Glossary Off
Versions: 1 2 3 4 5 6 7 8 9 10 11 12 13 14 15 16 17 18 19 20 21 22 23 24

000
FTUS43 KGRB 141734
TAFCWA
TAF
KCWA 141734Z 1418/1518 26006KT 6SM -SN SCT015 BKN025
      TEMPO 1418/1422 3SM -SN BKN015
     FM142300 24005KT 6SM -SN SCT012 BKN025
      TEMPO 1502/1506 3SM -SN BKN012
     FM151400 28014KT P6SM SCT020 SCT040=

USA.gov is the U.S. government's official web portal to all federal, state and local government web resources and services.